sensor_id;sensor_type;location;lat;lon;timestamp;P1;durP1;ratioP1;P2;durP2;ratioP2
33902;SDS011;20194;50.950;5.346;2023-04-03T00:00:33;8.82;;;4.65;;
33902;SDS011;20194;50.950;5.346;2023-04-03T00:02:58;9.63;;;4.47;;
33902;SDS011;20194;50.950;5.346;2023-04-03T00:05:24;9.07;;;5.05;;
33902;SDS011;20194;50.950;5.346;2023-04-03T00:07:51;8.13;;;5.10;;
33902;SDS011;20194;50.950;5.346;2023-04-03T00:10:16;11.82;;;4.95;;
33902;SDS011;20194;50.950;5.346;2023-04-03T00:12:42;8.23;;;4.90;;
33902;SDS011;20194;50.950;5.346;2023-04-03T00:15:09;7.72;;;4.80;;
33902;SDS011;20194;50.950;5.346;2023-04-03T00:17:34;9.07;;;5.30;;
33902;SDS011;20194;50.950;5.346;2023-04-03T00:20:01;7.53;;;5.10;;
33902;SDS011;20194;50.950;5.346;2023-04-03T00:22:27;10.02;;;5.05;;
33902;SDS011;20194;50.950;5.346;2023-04-03T00:24:53;7.63;;;5.28;;
33902;SDS011;20194;50.950;5.346;2023-04-03T00:27:19;7.88;;;5.30;;
33902;SDS011;20194;50.950;5.346;2023-04-03T00:29:45;9.82;;;5.70;;
33902;SDS011;20194;50.950;5.346;2023-04-03T00:32:12;8.32;;;5.05;;
33902;SDS011;20194;50.950;5.346;2023-04-03T00:34:37;7.32;;;4.85;;
33902;SDS011;20194;50.950;5.346;2023-04-03T00:37:03;14.65;;;5.75;;
33902;SDS011;20194;50.950;5.346;2023-04-03T00:39:29;7.65;;;5.00;;
33902;SDS011;20194;50.950;5.346;2023-04-03T00:41:55;7.57;;;4.68;;
33902;SDS011;20194;50.950;5.346;2023-04-03T00:44:22;6.80;;;4.63;;
33902;SDS011;20194;50.950;5.346;2023-04-03T00:47:11;8.05;;;4.50;;
33902;SDS011;20194;50.950;5.346;2023-04-03T00:49:38;14.20;;;5.22;;
33902;SDS011;20194;50.950;5.346;2023-04-03T00:52:05;7.85;;;4.90;;
33902;SDS011;20194;50.950;5.346;2023-04-03T00:54:38;10.55;;;5.50;;
33902;SDS011;20194;50.950;5.346;2023-04-03T00:57:05;11.13;;;4.88;;
33902;SDS011;20194;50.950;5.346;2023-04-03T00:59:33;7.07;;;5.20;;
33902;SDS011;20194;50.950;5.346;2023-04-03T01:02:03;7.07;;;4.80;;
33902;SDS011;20194;50.950;5.346;2023-04-03T01:04:39;6.80;;;4.88;;
33902;SDS011;20194;50.950;5.346;2023-04-03T01:07:07;9.05;;;5.25;;
33902;SDS011;20194;50.950;5.346;2023-04-03T01:09:33;14.13;;;5.50;;
33902;SDS011;20194;50.950;5.346;2023-04-03T01:15:00;9.48;;;5.28;;
33902;SDS011;20194;50.950;5.346;2023-04-03T01:25:56;8.02;;;4.60;;
33902;SDS011;20194;50.950;5.346;2023-04-03T01:33:25;11.63;;;5.85;;
33902;SDS011;20194;50.950;5.346;2023-04-03T01:35:51;9.50;;;5.28;;
33902;SDS011;20194;50.950;5.346;2023-04-03T01:38:17;11.23;;;5.55;;
33902;SDS011;20194;50.950;5.346;2023-04-03T01:40:43;7.57;;;4.70;;
33902;SDS011;20194;50.950;5.346;2023-04-03T01:43:09;8.52;;;4.97;;
33902;SDS011;20194;50.950;5.346;2023-04-03T01:45:35;16.77;;;5.72;;
33902;SDS011;20194;50.950;5.346;2023-04-03T01:48:00;8.90;;;6.03;;
33902;SDS011;20194;50.950;5.346;2023-04-03T01:50:26;6.70;;;5.25;;
33902;SDS011;20194;50.950;5.346;2023-04-03T01:52:52;8.68;;;5.18;;
33902;SDS011;20194;50.950;5.346;2023-04-03T01:55:17;8.60;;;5.50;;
33902;SDS011;20194;50.950;5.346;2023-04-03T01:57:43;8.40;;;4.78;;
33902;SDS011;20194;50.950;5.346;2023-04-03T02:00:09;6.70;;;5.30;;
33902;SDS011;20194;50.950;5.346;2023-04-03T02:02:35;13.13;;;5.70;;
33902;SDS011;20194;50.950;5.346;2023-04-03T02:05:01;9.43;;;5.45;;
33902;SDS011;20194;50.950;5.346;2023-04-03T02:07:27;11.80;;;5.93;;
33902;SDS011;20194;50.950;5.346;2023-04-03T02:09:52;9.45;;;5.35;;
33902;SDS011;20194;50.950;5.346;2023-04-03T02:12:18;8.55;;;5.28;;
33902;SDS011;20194;50.950;5.346;2023-04-03T02:14:45;11.63;;;6.00;;
33902;SDS011;20194;50.950;5.346;2023-04-03T02:17:10;10.85;;;6.13;;
33902;SDS011;20194;50.950;5.346;2023-04-03T02:19:36;9.13;;;6.07;;
33902;SDS011;20194;50.950;5.346;2023-04-03T02:22:02;10.55;;;6.38;;
33902;SDS011;20194;50.950;5.346;2023-04-03T02:24:29;10.80;;;6.00;;
33902;SDS011;20194;50.950;5.346;2023-04-03T02:26:55;10.48;;;6.50;;
33902;SDS011;20194;50.950;5.346;2023-04-03T02:29:20;10.38;;;5.68;;
33902;SDS011;20194;50.950;5.346;2023-04-03T02:31:46;9.10;;;6.45;;
33902;SDS011;20194;50.950;5.346;2023-04-03T02:34:12;8.50;;;5.55;;
33902;SDS011;20194;50.950;5.346;2023-04-03T02:36:38;9.32;;;5.90;;
33902;SDS011;20194;50.950;5.346;2023-04-03T02:39:03;14.65;;;6.43;;
33902;SDS011;20194;50.950;5.346;2023-04-03T02:41:30;12.68;;;6.97;;
33902;SDS011;20194;50.950;5.346;2023-04-03T02:44:04;11.82;;;6.28;;
33902;SDS011;20194;50.950;5.346;2023-04-03T02:46:31;12.85;;;6.72;;
33902;SDS011;20194;50.950;5.346;2023-04-03T02:48:57;8.63;;;6.97;;
33902;SDS011;20194;50.950;5.346;2023-04-03T02:51:23;11.52;;;5.68;;
33902;SDS011;20194;50.950;5.346;2023-04-03T02:53:49;9.32;;;6.43;;
33902;SDS011;20194;50.950;5.346;2023-04-03T02:56:15;9.90;;;6.15;;
33902;SDS011;20194;50.950;5.346;2023-04-03T02:58:43;10.55;;;6.40;;
33902;SDS011;20194;50.950;5.346;2023-04-03T03:01:09;10.65;;;5.82;;
33902;SDS011;20194;50.950;5.346;2023-04-03T03:03:36;8.32;;;5.65;;
33902;SDS011;20194;50.950;5.346;2023-04-03T03:06:09;8.27;;;6.00;;
33902;SDS011;20194;50.950;5.346;2023-04-03T03:08:37;10.88;;;7.13;;
33902;SDS011;20194;50.950;5.346;2023-04-03T03:11:03;11.15;;;5.93;;
33902;SDS011;20194;50.950;5.346;2023-04-03T03:13:29;7.30;;;5.53;;
33902;SDS011;20194;50.950;5.346;2023-04-03T03:15:56;8.68;;;6.07;;
33902;SDS011;20194;50.950;5.346;2023-04-03T03:18:21;8.02;;;5.90;;
33902;SDS011;20194;50.950;5.346;2023-04-03T03:20:51;11.20;;;6.10;;
33902;SDS011;20194;50.950;5.346;2023-04-03T03:23:17;11.35;;;6.05;;
33902;SDS011;20194;50.950;5.346;2023-04-03T03:25:43;12.25;;;6.63;;
33902;SDS011;20194;50.950;5.346;2023-04-03T03:28:09;8.85;;;6.10;;
33902;SDS011;20194;50.950;5.346;2023-04-03T03:30:36;10.85;;;7.20;;
33902;SDS011;20194;50.950;5.346;2023-04-03T03:33:02;12.13;;;6.55;;
33902;SDS011;20194;50.950;5.346;2023-04-03T03:35:28;11.80;;;6.93;;
33902;SDS011;20194;50.950;5.346;2023-04-03T03:37:54;13.27;;;6.32;;
33902;SDS011;20194;50.950;5.346;2023-04-03T03:40:20;16.02;;;6.65;;
33902;SDS011;20194;50.950;5.346;2023-04-03T03:42:45;10.60;;;6.15;;
33902;SDS011;20194;50.950;5.346;2023-04-03T03:45:11;12.55;;;6.40;;
33902;SDS011;20194;50.950;5.346;2023-04-03T03:47:37;9.57;;;7.03;;
33902;SDS011;20194;50.950;5.346;2023-04-03T03:50:03;8.68;;;6.47;;
33902;SDS011;20194;50.950;5.346;2023-04-03T03:52:29;11.85;;;7.10;;
33902;SDS011;20194;50.950;5.346;2023-04-03T03:54:55;10.98;;;7.03;;
33902;SDS011;20194;50.950;5.346;2023-04-03T03:57:21;12.55;;;6.03;;
33902;SDS011;20194;50.950;5.346;2023-04-03T03:59:47;10.73;;;6.63;;
33902;SDS011;20194;50.950;5.346;2023-04-03T04:02:14;11.65;;;7.45;;
33902;SDS011;20194;50.950;5.346;2023-04-03T04:04:40;13.90;;;7.03;;
33902;SDS011;20194;50.950;5.346;2023-04-03T04:07:05;11.48;;;6.85;;
33902;SDS011;20194;50.950;5.346;2023-04-03T04:09:31;14.93;;;7.13;;
33902;SDS011;20194;50.950;5.346;2023-04-03T04:11:57;13.30;;;6.70;;
33902;SDS011;20194;50.950;5.346;2023-04-03T04:14:23;9.73;;;6.45;;
33902;SDS011;20194;50.950;5.346;2023-04-03T04:16:49;12.43;;;7.22;;
33902;SDS011;20194;50.950;5.346;2023-04-03T04:19:15;11.75;;;7.60;;
33902;SDS011;20194;50.950;5.346;2023-04-03T04:21:40;12.20;;;6.82;;
33902;SDS011;20194;50.950;5.346;2023-04-03T04:24:07;8.80;;;6.43;;
33902;SDS011;20194;50.950;5.346;2023-04-03T04:26:33;14.70;;;7.35;;
33902;SDS011;20194;50.950;5.346;2023-04-03T04:28:59;13.50;;;7.43;;
33902;SDS011;20194;50.950;5.346;2023-04-03T04:31:25;10.15;;;7.28;;
33902;SDS011;20194;50.950;5.346;2023-04-03T04:33:51;12.95;;;7.60;;
33902;SDS011;20194;50.950;5.346;2023-04-03T04:36:17;14.98;;;7.75;;
33902;SDS011;20194;50.950;5.346;2023-04-03T04:38:43;13.55;;;7.57;;
33902;SDS011;20194;50.950;5.346;2023-04-03T04:41:09;10.63;;;7.40;;
33902;SDS011;20194;50.950;5.346;2023-04-03T04:43:35;11.73;;;8.05;;
33902;SDS011;20194;50.950;5.346;2023-04-03T04:46:03;15.48;;;7.35;;
33902;SDS011;20194;50.950;5.346;2023-04-03T04:48:30;16.83;;;9.23;;
33902;SDS011;20194;50.950;5.346;2023-04-03T04:50:56;13.18;;;8.05;;
33902;SDS011;20194;50.950;5.346;2023-04-03T04:53:22;16.90;;;9.18;;
33902;SDS011;20194;50.950;5.346;2023-04-03T04:55:48;16.73;;;9.02;;
33902;SDS011;20194;50.950;5.346;2023-04-03T04:58:13;13.65;;;8.45;;
33902;SDS011;20194;50.950;5.346;2023-04-03T05:00:39;13.25;;;9.25;;
33902;SDS011;20194;50.950;5.346;2023-04-03T05:03:05;16.73;;;9.52;;
33902;SDS011;20194;50.950;5.346;2023-04-03T05:05:31;16.92;;;9.13;;
33902;SDS011;20194;50.950;5.346;2023-04-03T05:07:56;14.50;;;9.02;;
33902;SDS011;20194;50.950;5.346;2023-04-03T05:10:22;15.55;;;9.30;;
33902;SDS011;20194;50.950;5.346;2023-04-03T05:12:48;14.43;;;8.70;;
33902;SDS011;20194;50.950;5.346;2023-04-03T05:15:14;15.13;;;10.07;;
33902;SDS011;20194;50.950;5.346;2023-04-03T05:17:39;15.35;;;10.35;;
33902;SDS011;20194;50.950;5.346;2023-04-03T05:20:05;16.13;;;9.48;;
33902;SDS011;20194;50.950;5.346;2023-04-03T05:22:31;17.63;;;10.15;;
33902;SDS011;20194;50.950;5.346;2023-04-03T05:24:57;13.98;;;9.20;;
33902;SDS011;20194;50.950;5.346;2023-04-03T05:27:23;18.05;;;9.60;;
33902;SDS011;20194;50.950;5.346;2023-04-03T05:29:49;15.68;;;9.43;;
33902;SDS011;20194;50.950;5.346;2023-04-03T05:32:15;17.90;;;9.60;;
33902;SDS011;20194;50.950;5.346;2023-04-03T05:34:42;20.90;;;10.02;;
33902;SDS011;20194;50.950;5.346;2023-04-03T05:37:07;14.88;;;9.82;;
33902;SDS011;20194;50.950;5.346;2023-04-03T05:39:33;15.32;;;9.48;;
33902;SDS011;20194;50.950;5.346;2023-04-03T05:41:59;17.67;;;11.10;;
33902;SDS011;20194;50.950;5.346;2023-04-03T05:44:25;15.20;;;9.90;;
33902;SDS011;20194;50.950;5.346;2023-04-03T05:46:50;16.25;;;10.63;;
33902;SDS011;20194;50.950;5.346;2023-04-03T05:49:16;20.45;;;10.40;;
33902;SDS011;20194;50.950;5.346;2023-04-03T05:51:42;18.27;;;9.82;;
33902;SDS011;20194;50.950;5.346;2023-04-03T05:54:14;17.25;;;9.60;;
33902;SDS011;20194;50.950;5.346;2023-04-03T05:56:43;16.48;;;9.77;;
33902;SDS011;20194;50.950;5.346;2023-04-03T05:59:09;18.10;;;9.48;;
33902;SDS011;20194;50.950;5.346;2023-04-03T06:01:36;16.23;;;9.45;;
33902;SDS011;20194;50.950;5.346;2023-04-03T06:04:02;19.38;;;9.68;;
33902;SDS011;20194;50.950;5.346;2023-04-03T06:09:13;11.95;;;8.43;;
33902;SDS011;20194;50.950;5.346;2023-04-03T06:11:40;17.38;;;9.30;;
33902;SDS011;20194;50.950;5.346;2023-04-03T06:14:06;14.82;;;9.68;;
33902;SDS011;20194;50.950;5.346;2023-04-03T06:16:34;18.30;;;9.98;;
33902;SDS011;20194;50.950;5.346;2023-04-03T06:18:59;15.77;;;9.15;;
33902;SDS011;20194;50.950;5.346;2023-04-03T06:21:26;13.15;;;8.50;;
33902;SDS011;20194;50.950;5.346;2023-04-03T06:23:51;13.35;;;8.35;;
33902;SDS011;20194;50.950;5.346;2023-04-03T06:26:17;23.67;;;8.63;;
33902;SDS011;20194;50.950;5.346;2023-04-03T06:28:43;13.48;;;8.65;;
33902;SDS011;20194;50.950;5.346;2023-04-03T06:31:08;18.65;;;9.63;;
33902;SDS011;20194;50.950;5.346;2023-04-03T06:33:34;16.98;;;8.85;;
33902;SDS011;20194;50.950;5.346;2023-04-03T06:36:02;17.38;;;8.20;;
33902;SDS011;20194;50.950;5.346;2023-04-03T06:38:29;24.42;;;8.63;;
33902;SDS011;20194;50.950;5.346;2023-04-03T06:40:57;23.83;;;7.82;;
33902;SDS011;20194;50.950;5.346;2023-04-03T06:43:23;17.15;;;7.03;;
33902;SDS011;20194;50.950;5.346;2023-04-03T06:45:49;12.52;;;6.05;;
33902;SDS011;20194;50.950;5.346;2023-04-03T06:48:15;14.50;;;6.90;;
33902;SDS011;20194;50.950;5.346;2023-04-03T06:50:41;11.70;;;5.95;;
33902;SDS011;20194;50.950;5.346;2023-04-03T06:53:07;11.20;;;5.28;;
33902;SDS011;20194;50.950;5.346;2023-04-03T06:55:34;11.68;;;5.45;;
33902;SDS011;20194;50.950;5.346;2023-04-03T06:58:00;11.52;;;5.28;;
33902;SDS011;20194;50.950;5.346;2023-04-03T07:00:26;16.48;;;6.00;;
33902;SDS011;20194;50.950;5.346;2023-04-03T07:02:52;15.20;;;5.50;;
33902;SDS011;20194;50.950;5.346;2023-04-03T07:05:18;13.40;;;5.07;;
33902;SDS011;20194;50.950;5.346;2023-04-03T07:07:45;11.27;;;5.35;;
33902;SDS011;20194;50.950;5.346;2023-04-03T07:10:10;11.30;;;4.82;;
33902;SDS011;20194;50.950;5.346;2023-04-03T07:12:37;11.77;;;5.35;;
33902;SDS011;20194;50.950;5.346;2023-04-03T07:15:03;14.20;;;5.10;;
33902;SDS011;20194;50.950;5.346;2023-04-03T07:17:30;11.00;;;5.60;;
33902;SDS011;20194;50.950;5.346;2023-04-03T07:19:56;10.00;;;4.03;;
33902;SDS011;20194;50.950;5.346;2023-04-03T07:22:22;9.00;;;4.75;;
33902;SDS011;20194;50.950;5.346;2023-04-03T07:24:47;13.48;;;4.85;;
33902;SDS011;20194;50.950;5.346;2023-04-03T07:27:13;11.90;;;4.90;;
33902;SDS011;20194;50.950;5.346;2023-04-03T07:29:39;14.27;;;4.57;;
33902;SDS011;20194;50.950;5.346;2023-04-03T07:32:05;9.40;;;5.05;;
33902;SDS011;20194;50.950;5.346;2023-04-03T07:34:32;15.27;;;4.75;;
33902;SDS011;20194;50.950;5.346;2023-04-03T07:36:58;11.00;;;4.65;;
33902;SDS011;20194;50.950;5.346;2023-04-03T07:39:25;9.40;;;4.38;;
33902;SDS011;20194;50.950;5.346;2023-04-03T07:41:51;14.30;;;4.82;;
33902;SDS011;20194;50.950;5.346;2023-04-03T07:44:17;6.95;;;3.88;;
33902;SDS011;20194;50.950;5.346;2023-04-03T07:46:43;12.48;;;3.88;;
33902;SDS011;20194;50.950;5.346;2023-04-03T07:49:08;11.02;;;4.25;;
33902;SDS011;20194;50.950;5.346;2023-04-03T07:51:35;8.88;;;3.70;;
33902;SDS011;20194;50.950;5.346;2023-04-03T07:54:00;10.05;;;3.42;;
33902;SDS011;20194;50.950;5.346;2023-04-03T07:56:26;6.32;;;3.80;;
33902;SDS011;20194;50.950;5.346;2023-04-03T07:58:52;10.48;;;4.03;;
33902;SDS011;20194;50.950;5.346;2023-04-03T08:01:18;5.38;;;3.38;;
33902;SDS011;20194;50.950;5.346;2023-04-03T08:03:44;17.33;;;4.43;;
33902;SDS011;20194;50.950;5.346;2023-04-03T08:06:10;10.90;;;3.92;;
33902;SDS011;20194;50.950;5.346;2023-04-03T08:08:35;8.48;;;3.30;;
33902;SDS011;20194;50.950;5.346;2023-04-03T08:11:01;7.20;;;3.20;;
33902;SDS011;20194;50.950;5.346;2023-04-03T08:13:28;5.82;;;3.17;;
33902;SDS011;20194;50.950;5.346;2023-04-03T08:15:55;12.60;;;3.45;;
33902;SDS011;20194;50.950;5.346;2023-04-03T08:18:22;8.38;;;3.50;;
33902;SDS011;20194;50.950;5.346;2023-04-03T08:20:49;9.27;;;3.58;;
33902;SDS011;20194;50.950;5.346;2023-04-03T08:23:18;7.90;;;2.97;;
33902;SDS011;20194;50.950;5.346;2023-04-03T08:25:44;6.93;;;3.10;;
33902;SDS011;20194;50.950;5.346;2023-04-03T08:28:10;11.57;;;3.05;;
33902;SDS011;20194;50.950;5.346;2023-04-03T08:30:40;7.30;;;3.25;;
33902;SDS011;20194;50.950;5.346;2023-04-03T08:33:07;9.38;;;3.13;;
33902;SDS011;20194;50.950;5.346;2023-04-03T08:35:37;7.80;;;2.78;;
33902;SDS011;20194;50.950;5.346;2023-04-03T08:38:05;8.00;;;2.85;;
33902;SDS011;20194;50.950;5.346;2023-04-03T08:40:31;10.18;;;2.63;;
33902;SDS011;20194;50.950;5.346;2023-04-03T08:45:27;7.95;;;2.80;;
33902;SDS011;20194;50.950;5.346;2023-04-03T08:50:53;8.00;;;3.47;;
33902;SDS011;20194;50.950;5.346;2023-04-03T08:53:25;6.65;;;2.30;;
33902;SDS011;20194;50.950;5.346;2023-04-03T08:55:54;17.90;;;2.97;;
33902;SDS011;20194;50.950;5.346;2023-04-03T08:58:30;6.60;;;2.17;;
33902;SDS011;20194;50.950;5.346;2023-04-03T09:01:01;5.03;;;2.20;;
33902;SDS011;20194;50.950;5.346;2023-04-03T09:03:36;8.43;;;2.58;;
33902;SDS011;20194;50.950;5.346;2023-04-03T09:06:05;7.43;;;2.38;;
33902;SDS011;20194;50.950;5.346;2023-04-03T09:17:03;12.23;;;2.22;;
33902;SDS011;20194;50.950;5.346;2023-04-03T09:22:24;6.65;;;2.13;;
33902;SDS011;20194;50.950;5.346;2023-04-03T09:27:41;12.20;;;2.20;;
33902;SDS011;20194;50.950;5.346;2023-04-03T09:30:14;4.45;;;1.92;;
33902;SDS011;20194;50.950;5.346;2023-04-03T09:32:43;5.97;;;1.83;;
33902;SDS011;20194;50.950;5.346;2023-04-03T09:35:21;7.68;;;2.08;;
33902;SDS011;20194;50.950;5.346;2023-04-03T09:37:49;4.93;;;1.98;;
33902;SDS011;20194;50.950;5.346;2023-04-03T09:42:52;7.20;;;2.03;;
33902;SDS011;20194;50.950;5.346;2023-04-03T09:45:52;10.68;;;2.78;;
33902;SDS011;20194;50.950;5.346;2023-04-03T09:50:38;9.60;;;2.22;;
33902;SDS011;20194;50.950;5.346;2023-04-03T09:53:25;4.68;;;2.10;;
33902;SDS011;20194;50.950;5.346;2023-04-03T09:55:51;6.95;;;2.47;;
33902;SDS011;20194;50.950;5.346;2023-04-03T09:58:26;7.15;;;2.65;;
33902;SDS011;20194;50.950;5.346;2023-04-03T10:00:57;11.88;;;2.90;;
33902;SDS011;20194;50.950;5.346;2023-04-03T10:03:34;5.72;;;2.58;;
33902;SDS011;20194;50.950;5.346;2023-04-03T10:08:46;8.32;;;2.55;;
33902;SDS011;20194;50.950;5.346;2023-04-03T10:11:26;5.18;;;1.95;;
33902;SDS011;20194;50.950;5.346;2023-04-03T10:16:26;4.43;;;1.80;;
33902;SDS011;20194;50.950;5.346;2023-04-03T10:21:54;5.95;;;1.75;;
33902;SDS011;20194;50.950;5.346;2023-04-03T10:24:23;3.92;;;1.10;;
33902;SDS011;20194;50.950;5.346;2023-04-03T10:27:06;3.58;;;1.10;;
33902;SDS011;20194;50.950;5.346;2023-04-03T10:38:20;7.28;;;1.90;;
33902;SDS011;20194;50.950;5.346;2023-04-03T10:40:47;3.78;;;0.95;;
33902;SDS011;20194;50.950;5.346;2023-04-03T10:57:01;2.88;;;0.95;;
33902;SDS011;20194;50.950;5.346;2023-04-03T11:02:48;2.42;;;0.90;;
33902;SDS011;20194;50.950;5.346;2023-04-03T11:04:52;2.78;;;0.90;;
33902;SDS011;20194;50.950;5.346;2023-04-03T11:07:21;4.65;;;1.00;;
33902;SDS011;20194;50.950;5.346;2023-04-03T11:10:13;5.22;;;0.93;;
33902;SDS011;20194;50.950;5.346;2023-04-03T11:12:51;5.18;;;0.85;;
33902;SDS011;20194;50.950;5.346;2023-04-03T11:15:23;4.88;;;1.35;;
33902;SDS011;20194;50.950;5.346;2023-04-03T11:18:04;2.25;;;1.00;;
33902;SDS011;20194;50.950;5.346;2023-04-03T11:20:33;3.85;;;0.80;;
33902;SDS011;20194;50.950;5.346;2023-04-03T11:25:44;2.28;;;1.15;;
33902;SDS011;20194;50.950;5.346;2023-04-03T11:28:14;3.90;;;1.02;;
33902;SDS011;20194;50.950;5.346;2023-04-03T11:30:47;3.53;;;0.73;;
33902;SDS011;20194;50.950;5.346;2023-04-03T11:35:50;2.58;;;1.23;;
33902;SDS011;20194;50.950;5.346;2023-04-03T11:38:28;6.57;;;1.35;;
33902;SDS011;20194;50.950;5.346;2023-04-03T11:41:01;1.33;;;0.70;;
33902;SDS011;20194;50.950;5.346;2023-04-03T11:43:30;3.10;;;0.95;;
33902;SDS011;20194;50.950;5.346;2023-04-03T11:45:58;2.45;;;1.20;;
33902;SDS011;20194;50.950;5.346;2023-04-03T11:50:56;1.95;;;1.30;;
33902;SDS011;20194;50.950;5.346;2023-04-03T11:53:28;3.58;;;1.55;;
33902;SDS011;20194;50.950;5.346;2023-04-03T11:55:59;3.22;;;2.25;;
33902;SDS011;20194;50.950;5.346;2023-04-03T11:59:14;2.70;;;1.10;;
33902;SDS011;20194;50.950;5.346;2023-04-03T12:04:12;3.33;;;1.45;;
33902;SDS011;20194;50.950;5.346;2023-04-03T12:11:51;2.92;;;1.52;;
33902;SDS011;20194;50.950;5.346;2023-04-03T12:14:18;2.88;;;1.48;;
33902;SDS011;20194;50.950;5.346;2023-04-03T12:16:50;4.50;;;1.25;;
33902;SDS011;20194;50.950;5.346;2023-04-03T12:27:07;3.35;;;1.67;;
33902;SDS011;20194;50.950;5.346;2023-04-03T12:32:35;2.00;;;1.23;;
33902;SDS011;20194;50.950;5.346;2023-04-03T12:35:39;6.55;;;1.40;;
33902;SDS011;20194;50.950;5.346;2023-04-03T12:41:19;5.20;;;1.33;;
33902;SDS011;20194;50.950;5.346;2023-04-03T12:44:13;4.80;;;1.50;;
33902;SDS011;20194;50.950;5.346;2023-04-03T12:46:49;2.92;;;1.08;;
33902;SDS011;20194;50.950;5.346;2023-04-03T12:51:54;3.33;;;1.20;;
33902;SDS011;20194;50.950;5.346;2023-04-03T12:54:34;4.68;;;1.23;;
33902;SDS011;20194;50.950;5.346;2023-04-03T12:57:09;3.42;;;1.98;;
33902;SDS011;20194;50.950;5.346;2023-04-03T12:59:35;5.35;;;1.45;;
33902;SDS011;20194;50.950;5.346;2023-04-03T13:02:02;5.72;;;1.65;;
33902;SDS011;20194;50.950;5.346;2023-04-03T13:04:28;6.57;;;1.77;;
33902;SDS011;20194;50.950;5.346;2023-04-03T13:06:55;2.97;;;1.60;;
33902;SDS011;20194;50.950;5.346;2023-04-03T13:09:23;6.70;;;1.90;;
33902;SDS011;20194;50.950;5.346;2023-04-03T13:12:03;2.47;;;1.50;;
33902;SDS011;20194;50.950;5.346;2023-04-03T13:14:39;3.15;;;1.30;;
33902;SDS011;20194;50.950;5.346;2023-04-03T13:17:12;3.80;;;1.48;;
33902;SDS011;20194;50.950;5.346;2023-04-03T13:19:40;4.13;;;1.40;;
33902;SDS011;20194;50.950;5.346;2023-04-03T13:22:11;9.60;;;2.10;;
33902;SDS011;20194;50.950;5.346;2023-04-03T13:24:51;4.47;;;2.15;;
33902;SDS011;20194;50.950;5.346;2023-04-03T13:27:18;4.15;;;1.70;;
33902;SDS011;20194;50.950;5.346;2023-04-03T13:29:48;2.67;;;1.50;;
33902;SDS011;20194;50.950;5.346;2023-04-03T13:32:23;5.97;;;1.77;;
33902;SDS011;20194;50.950;5.346;2023-04-03T13:34:51;7.03;;;1.67;;
33902;SDS011;20194;50.950;5.346;2023-04-03T13:39:56;3.55;;;1.77;;
33902;SDS011;20194;50.950;5.346;2023-04-03T13:42:42;8.20;;;2.20;;
33902;SDS011;20194;50.950;5.346;2023-04-03T13:45:22;3.83;;;1.83;;
33902;SDS011;20194;50.950;5.346;2023-04-03T13:50:53;10.10;;;2.28;;
33902;SDS011;20194;50.950;5.346;2023-04-03T13:53:22;4.68;;;1.92;;
33902;SDS011;20194;50.950;5.346;2023-04-03T13:58:29;13.00;;;2.10;;
33902;SDS011;20194;50.950;5.346;2023-04-03T14:01:06;4.47;;;1.63;;
33902;SDS011;20194;50.950;5.346;2023-04-03T14:03:43;4.80;;;2.03;;
33902;SDS011;20194;50.950;5.346;2023-04-03T14:06:13;4.75;;;1.88;;
33902;SDS011;20194;50.950;5.346;2023-04-03T14:08:40;5.97;;;1.90;;
33902;SDS011;20194;50.950;5.346;2023-04-03T14:11:09;5.60;;;1.88;;
33902;SDS011;20194;50.950;5.346;2023-04-03T14:13:42;5.30;;;1.48;;
33902;SDS011;20194;50.950;5.346;2023-04-03T14:16:12;6.75;;;2.20;;
33902;SDS011;20194;50.950;5.346;2023-04-03T14:18:44;4.80;;;1.58;;
33902;SDS011;20194;50.950;5.346;2023-04-03T14:21:12;7.22;;;1.60;;
33902;SDS011;20194;50.950;5.346;2023-04-03T14:23:40;6.57;;;1.48;;
33902;SDS011;20194;50.950;5.346;2023-04-03T14:26:17;4.40;;;1.73;;
33902;SDS011;20194;50.950;5.346;2023-04-03T14:28:49;3.45;;;1.77;;
33902;SDS011;20194;50.950;5.346;2023-04-03T14:31:17;8.75;;;2.25;;
33902;SDS011;20194;50.950;5.346;2023-04-03T14:33:43;3.58;;;2.00;;
33902;SDS011;20194;50.950;5.346;2023-04-03T14:36:11;3.95;;;1.73;;
33902;SDS011;20194;50.950;5.346;2023-04-03T14:38:42;3.70;;;1.73;;
33902;SDS011;20194;50.950;5.346;2023-04-03T14:41:13;9.32;;;2.30;;
33902;SDS011;20194;50.950;5.346;2023-04-03T14:43:42;6.85;;;2.28;;
33902;SDS011;20194;50.950;5.346;2023-04-03T14:46:11;8.82;;;2.20;;
33902;SDS011;20194;50.950;5.346;2023-04-03T14:48:40;3.10;;;1.80;;
33902;SDS011;20194;50.950;5.346;2023-04-03T14:51:05;8.98;;;2.05;;
33902;SDS011;20194;50.950;5.346;2023-04-03T14:53:31;7.05;;;2.03;;
33902;SDS011;20194;50.950;5.346;2023-04-03T14:55:58;6.75;;;1.95;;
33902;SDS011;20194;50.950;5.346;2023-04-03T14:58:24;4.32;;;2.10;;
33902;SDS011;20194;50.950;5.346;2023-04-03T15:00:49;5.40;;;1.52;;
33902;SDS011;20194;50.950;5.346;2023-04-03T15:03:17;7.65;;;2.10;;
33902;SDS011;20194;50.950;5.346;2023-04-03T15:05:44;5.35;;;2.33;;
33902;SDS011;20194;50.950;5.346;2023-04-03T15:08:21;3.25;;;1.75;;
33902;SDS011;20194;50.950;5.346;2023-04-03T15:10:50;7.30;;;2.30;;
33902;SDS011;20194;50.950;5.346;2023-04-03T15:13:17;4.65;;;1.90;;
33902;SDS011;20194;50.950;5.346;2023-04-03T15:15:45;6.45;;;1.83;;
33902;SDS011;20194;50.950;5.346;2023-04-03T15:18:13;4.75;;;1.67;;
33902;SDS011;20194;50.950;5.346;2023-04-03T15:20:43;4.50;;;1.70;;
33902;SDS011;20194;50.950;5.346;2023-04-03T15:23:10;3.78;;;1.25;;
33902;SDS011;20194;50.950;5.346;2023-04-03T15:25:37;4.72;;;1.83;;
33902;SDS011;20194;50.950;5.346;2023-04-03T15:28:04;4.03;;;1.65;;
33902;SDS011;20194;50.950;5.346;2023-04-03T15:30:30;2.78;;;1.58;;
33902;SDS011;20194;50.950;5.346;2023-04-03T15:32:56;6.15;;;1.83;;
33902;SDS011;20194;50.950;5.346;2023-04-03T15:35:22;2.83;;;1.40;;
33902;SDS011;20194;50.950;5.346;2023-04-03T15:37:48;4.90;;;1.50;;
33902;SDS011;20194;50.950;5.346;2023-04-03T15:40:14;6.90;;;1.90;;
33902;SDS011;20194;50.950;5.346;2023-04-03T15:42:40;3.28;;;1.73;;
33902;SDS011;20194;50.950;5.346;2023-04-03T15:45:06;3.58;;;1.42;;
33902;SDS011;20194;50.950;5.346;2023-04-03T15:47:33;3.53;;;1.48;;
33902;SDS011;20194;50.950;5.346;2023-04-03T15:49:58;5.28;;;1.63;;
33902;SDS011;20194;50.950;5.346;2023-04-03T15:52:24;2.53;;;1.25;;
33902;SDS011;20194;50.950;5.346;2023-04-03T15:54:50;3.70;;;1.73;;
33902;SDS011;20194;50.950;5.346;2023-04-03T15:57:15;3.10;;;1.65;;
33902;SDS011;20194;50.950;5.346;2023-04-03T15:59:41;4.35;;;1.33;;
33902;SDS011;20194;50.950;5.346;2023-04-03T16:02:07;2.92;;;1.58;;
33902;SDS011;20194;50.950;5.346;2023-04-03T16:04:37;3.05;;;1.40;;
33902;SDS011;20194;50.950;5.346;2023-04-03T16:07:03;5.88;;;1.73;;
33902;SDS011;20194;50.950;5.346;2023-04-03T16:09:30;2.78;;;1.80;;
33902;SDS011;20194;50.950;5.346;2023-04-03T16:11:57;5.57;;;1.60;;
33902;SDS011;20194;50.950;5.346;2023-04-03T16:14:23;2.75;;;1.40;;
33902;SDS011;20194;50.950;5.346;2023-04-03T16:16:49;4.63;;;1.83;;
33902;SDS011;20194;50.950;5.346;2023-04-03T16:19:15;2.30;;;1.38;;
33902;SDS011;20194;50.950;5.346;2023-04-03T16:21:41;2.60;;;1.40;;
33902;SDS011;20194;50.950;5.346;2023-04-03T16:24:06;4.43;;;1.50;;
33902;SDS011;20194;50.950;5.346;2023-04-03T16:26:33;4.55;;;1.92;;
33902;SDS011;20194;50.950;5.346;2023-04-03T16:28:59;4.28;;;1.55;;
33902;SDS011;20194;50.950;5.346;2023-04-03T16:31:24;3.80;;;1.60;;
33902;SDS011;20194;50.950;5.346;2023-04-03T16:33:51;4.95;;;1.90;;
33902;SDS011;20194;50.950;5.346;2023-04-03T16:36:17;3.15;;;1.27;;
33902;SDS011;20194;50.950;5.346;2023-04-03T16:38:43;3.20;;;1.65;;
33902;SDS011;20194;50.950;5.346;2023-04-03T16:41:08;6.05;;;2.20;;
33902;SDS011;20194;50.950;5.346;2023-04-03T16:43:34;3.72;;;1.30;;
33902;SDS011;20194;50.950;5.346;2023-04-03T16:46:01;3.03;;;1.38;;